sensor_id;sensor_type;location;lat;lon;timestamp;P1;durP1;ratioP1;P2;durP2;ratioP2
42668;SDS011;29384;42.028;21.388;2023-04-15T00:00:07;0.93;;;0.68;;
42668;SDS011;29384;42.028;21.388;2023-04-15T00:02:32;0.88;;;0.88;;
42668;SDS011;29384;42.028;21.388;2023-04-15T00:04:57;0.40;;;0.40;;
42668;SDS011;29384;42.028;21.388;2023-04-15T00:07:23;0.90;;;0.65;;
42668;SDS011;29384;42.028;21.388;2023-04-15T00:09:48;1.17;;;1.08;;
42668;SDS011;29384;42.028;21.388;2023-04-15T00:15:16;1.25;;;0.68;;
42668;SDS011;29384;42.028;21.388;2023-04-15T00:17:41;1.65;;;0.73;;
42668;SDS011;29384;42.028;21.388;2023-04-15T00:20:07;0.77;;;0.77;;
42668;SDS011;29384;42.028;21.388;2023-04-15T00:22:32;2.72;;;0.60;;
42668;SDS011;29384;42.028;21.388;2023-04-15T00:24:57;1.17;;;0.55;;
42668;SDS011;29384;42.028;21.388;2023-04-15T00:30:25;1.65;;;0.70;;
42668;SDS011;29384;42.028;21.388;2023-04-15T00:32:51;1.00;;;0.57;;
42668;SDS011;29384;42.028;21.388;2023-04-15T00:35:16;0.40;;;0.40;;
42668;SDS011;29384;42.028;21.388;2023-04-15T00:37:42;2.05;;;0.63;;
42668;SDS011;29384;42.028;21.388;2023-04-15T00:40:09;5.03;;;0.47;;
42668;SDS011;29384;42.028;21.388;2023-04-15T00:46:14;1.20;;;0.70;;
42668;SDS011;29384;42.028;21.388;2023-04-15T00:48:40;1.13;;;0.50;;
42668;SDS011;29384;42.028;21.388;2023-04-15T00:51:06;2.80;;;0.85;;
42668;SDS011;29384;42.028;21.388;2023-04-15T00:53:31;1.48;;;0.63;;
42668;SDS011;29384;42.028;21.388;2023-04-15T00:55:57;4.75;;;0.35;;
42668;SDS011;29384;42.028;21.388;2023-04-15T00:58:22;0.75;;;0.70;;
42668;SDS011;29384;42.028;21.388;2023-04-15T01:00:47;0.60;;;0.55;;
42668;SDS011;29384;42.028;21.388;2023-04-15T01:03:13;1.30;;;0.55;;
42668;SDS011;29384;42.028;21.388;2023-04-15T01:05:39;4.28;;;0.55;;
42668;SDS011;29384;42.028;21.388;2023-04-15T01:08:05;2.65;;;1.10;;
42668;SDS011;29384;42.028;21.388;2023-04-15T01:10:30;1.33;;;0.82;;
42668;SDS011;29384;42.028;21.388;2023-04-15T01:12:56;0.50;;;0.50;;
42668;SDS011;29384;42.028;21.388;2023-04-15T01:15:21;1.75;;;0.65;;
42668;SDS011;29384;42.028;21.388;2023-04-15T01:17:46;0.75;;;0.75;;
42668;SDS011;29384;42.028;21.388;2023-04-15T01:20:12;0.60;;;0.60;;
42668;SDS011;29384;42.028;21.388;2023-04-15T01:22:37;1.42;;;0.57;;
42668;SDS011;29384;42.028;21.388;2023-04-15T01:25:10;1.75;;;0.50;;
42668;SDS011;29384;42.028;21.388;2023-04-15T01:30:39;4.90;;;0.50;;
42668;SDS011;29384;42.028;21.388;2023-04-15T01:33:04;1.90;;;0.88;;
42668;SDS011;29384;42.028;21.388;2023-04-15T01:35:29;4.80;;;1.02;;
42668;SDS011;29384;42.028;21.388;2023-04-15T01:37:55;0.40;;;0.40;;
42668;SDS011;29384;42.028;21.388;2023-04-15T01:40:24;0.77;;;0.68;;
42668;SDS011;29384;42.028;21.388;2023-04-15T01:45:52;2.92;;;0.40;;
42668;SDS011;29384;42.028;21.388;2023-04-15T01:48:17;1.40;;;0.50;;
42668;SDS011;29384;42.028;21.388;2023-04-15T01:50:43;0.43;;;0.30;;
42668;SDS011;29384;42.028;21.388;2023-04-15T01:53:08;0.40;;;0.40;;
42668;SDS011;29384;42.028;21.388;2023-04-15T01:55:34;4.57;;;0.40;;
42668;SDS011;29384;42.028;21.388;2023-04-15T02:01:02;1.23;;;0.70;;
42668;SDS011;29384;42.028;21.388;2023-04-15T02:03:28;0.50;;;0.50;;
42668;SDS011;29384;42.028;21.388;2023-04-15T02:05:53;0.43;;;0.35;;
42668;SDS011;29384;42.028;21.388;2023-04-15T02:08:18;0.95;;;0.30;;
42668;SDS011;29384;42.028;21.388;2023-04-15T02:10:44;3.30;;;0.40;;
42668;SDS011;29384;42.028;21.388;2023-04-15T02:16:18;1.75;;;0.82;;
42668;SDS011;29384;42.028;21.388;2023-04-15T02:18:44;1.35;;;0.50;;
42668;SDS011;29384;42.028;21.388;2023-04-15T02:21:09;1.58;;;0.65;;
42668;SDS011;29384;42.028;21.388;2023-04-15T02:23:35;0.88;;;0.68;;
42668;SDS011;29384;42.028;21.388;2023-04-15T02:26:00;3.22;;;0.90;;
42668;SDS011;29384;42.028;21.388;2023-04-15T02:28:26;3.80;;;0.50;;
42668;SDS011;29384;42.028;21.388;2023-04-15T02:30:51;1.40;;;0.57;;
42668;SDS011;29384;42.028;21.388;2023-04-15T02:33:18;0.50;;;0.50;;
42668;SDS011;29384;42.028;21.388;2023-04-15T02:35:43;0.80;;;0.50;;
42668;SDS011;29384;42.028;21.388;2023-04-15T02:38:10;2.50;;;0.45;;
42668;SDS011;29384;42.028;21.388;2023-04-15T02:40:35;2.75;;;0.50;;
42668;SDS011;29384;42.028;21.388;2023-04-15T02:46:04;2.35;;;0.32;;
42668;SDS011;29384;42.028;21.388;2023-04-15T02:48:29;0.50;;;0.50;;
42668;SDS011;29384;42.028;21.388;2023-04-15T02:51:09;0.65;;;0.65;;
42668;SDS011;29384;42.028;21.388;2023-04-15T02:53:35;0.65;;;0.28;;
42668;SDS011;29384;42.028;21.388;2023-04-15T02:56:00;0.30;;;0.30;;
42668;SDS011;29384;42.028;21.388;2023-04-15T03:01:27;3.45;;;0.50;;
42668;SDS011;29384;42.028;21.388;2023-04-15T03:03:53;1.75;;;0.50;;
42668;SDS011;29384;42.028;21.388;2023-04-15T03:06:18;2.60;;;0.55;;
42668;SDS011;29384;42.028;21.388;2023-04-15T03:08:43;2.15;;;0.70;;
42668;SDS011;29384;42.028;21.388;2023-04-15T03:11:09;1.27;;;0.65;;
42668;SDS011;29384;42.028;21.388;2023-04-15T03:16:37;3.22;;;0.50;;
42668;SDS011;29384;42.028;21.388;2023-04-15T03:19:03;0.77;;;0.77;;
42668;SDS011;29384;42.028;21.388;2023-04-15T03:21:28;6.32;;;1.80;;
42668;SDS011;29384;42.028;21.388;2023-04-15T03:23:53;0.90;;;0.82;;
42668;SDS011;29384;42.028;21.388;2023-04-15T03:26:25;5.15;;;0.90;;
42668;SDS011;29384;42.028;21.388;2023-04-15T03:32:11;1.05;;;0.93;;
42668;SDS011;29384;42.028;21.388;2023-04-15T03:34:39;2.15;;;0.88;;
42668;SDS011;29384;42.028;21.388;2023-04-15T03:37:04;2.20;;;0.45;;
42668;SDS011;29384;42.028;21.388;2023-04-15T03:39:29;1.75;;;0.35;;
42668;SDS011;29384;42.028;21.388;2023-04-15T03:41:55;1.02;;;0.60;;
42668;SDS011;29384;42.028;21.388;2023-04-15T03:44:21;0.60;;;0.60;;
42668;SDS011;29384;42.028;21.388;2023-04-15T03:46:47;0.60;;;0.60;;
42668;SDS011;29384;42.028;21.388;2023-04-15T03:49:12;0.88;;;0.47;;
42668;SDS011;29384;42.028;21.388;2023-04-15T03:51:37;1.38;;;0.47;;
42668;SDS011;29384;42.028;21.388;2023-04-15T03:54:03;0.80;;;0.40;;
42668;SDS011;29384;42.028;21.388;2023-04-15T03:56:28;1.33;;;0.52;;
42668;SDS011;29384;42.028;21.388;2023-04-15T04:01:56;3.70;;;0.65;;
42668;SDS011;29384;42.028;21.388;2023-04-15T04:04:21;1.85;;;0.85;;
42668;SDS011;29384;42.028;21.388;2023-04-15T04:06:47;5.65;;;0.85;;
42668;SDS011;29384;42.028;21.388;2023-04-15T04:09:12;0.75;;;0.75;;
42668;SDS011;29384;42.028;21.388;2023-04-15T04:11:37;0.85;;;0.70;;
42668;SDS011;29384;42.028;21.388;2023-04-15T04:17:05;0.47;;;0.35;;
42668;SDS011;29384;42.028;21.388;2023-04-15T04:19:30;1.77;;;0.60;;
42668;SDS011;29384;42.028;21.388;2023-04-15T04:21:56;0.52;;;0.50;;
42668;SDS011;29384;42.028;21.388;2023-04-15T04:24:21;1.77;;;0.88;;
42668;SDS011;29384;42.028;21.388;2023-04-15T04:26:46;1.55;;;0.60;;
42668;SDS011;29384;42.028;21.388;2023-04-15T04:32:15;3.25;;;0.40;;
42668;SDS011;29384;42.028;21.388;2023-04-15T04:34:40;2.53;;;0.93;;
42668;SDS011;29384;42.028;21.388;2023-04-15T04:37:05;1.75;;;0.60;;
42668;SDS011;29384;42.028;21.388;2023-04-15T04:39:31;2.88;;;0.55;;
42668;SDS011;29384;42.028;21.388;2023-04-15T04:41:56;0.52;;;0.52;;
42668;SDS011;29384;42.028;21.388;2023-04-15T04:44:22;0.40;;;0.40;;
42668;SDS011;29384;42.028;21.388;2023-04-15T04:46:47;1.75;;;0.85;;
42668;SDS011;29384;42.028;21.388;2023-04-15T04:49:12;0.73;;;0.68;;
42668;SDS011;29384;42.028;21.388;2023-04-15T04:51:38;2.10;;;0.82;;
42668;SDS011;29384;42.028;21.388;2023-04-15T04:54:03;1.17;;;1.02;;
42668;SDS011;29384;42.028;21.388;2023-04-15T04:56:28;2.22;;;0.85;;
42668;SDS011;29384;42.028;21.388;2023-04-15T05:01:56;1.00;;;0.85;;
42668;SDS011;29384;42.028;21.388;2023-04-15T05:04:21;16.95;;;1.15;;
42668;SDS011;29384;42.028;21.388;2023-04-15T05:06:47;1.52;;;0.88;;
42668;SDS011;29384;42.028;21.388;2023-04-15T05:09:12;2.95;;;1.63;;
42668;SDS011;29384;42.028;21.388;2023-04-15T05:11:37;2.03;;;0.70;;
42668;SDS011;29384;42.028;21.388;2023-04-15T05:17:06;0.90;;;0.40;;
42668;SDS011;29384;42.028;21.388;2023-04-15T05:19:31;1.88;;;0.63;;
42668;SDS011;29384;42.028;21.388;2023-04-15T05:21:56;11.00;;;2.72;;
42668;SDS011;29384;42.028;21.388;2023-04-15T05:24:22;4.93;;;3.15;;
42668;SDS011;29384;42.028;21.388;2023-04-15T05:26:47;1.15;;;0.70;;
42668;SDS011;29384;42.028;21.388;2023-04-15T05:32:14;3.08;;;0.93;;
42668;SDS011;29384;42.028;21.388;2023-04-15T05:34:40;6.05;;;1.50;;
42668;SDS011;29384;42.028;21.388;2023-04-15T05:37:05;1.35;;;1.25;;
42668;SDS011;29384;42.028;21.388;2023-04-15T05:39:31;4.68;;;1.95;;
42668;SDS011;29384;42.028;21.388;2023-04-15T05:41:56;3.00;;;2.17;;
42668;SDS011;29384;42.028;21.388;2023-04-15T05:47:24;4.20;;;3.10;;
42668;SDS011;29384;42.028;21.388;2023-04-15T05:49:50;5.53;;;3.28;;
42668;SDS011;29384;42.028;21.388;2023-04-15T05:52:15;10.60;;;4.80;;
42668;SDS011;29384;42.028;21.388;2023-04-15T05:54:41;9.10;;;4.10;;
42668;SDS011;29384;42.028;21.388;2023-04-15T05:57:06;4.57;;;2.95;;
42668;SDS011;29384;42.028;21.388;2023-04-15T06:02:35;1.52;;;1.42;;
42668;SDS011;29384;42.028;21.388;2023-04-15T06:05:00;3.17;;;1.67;;
42668;SDS011;29384;42.028;21.388;2023-04-15T06:07:25;2.10;;;2.00;;
42668;SDS011;29384;42.028;21.388;2023-04-15T06:09:51;2.90;;;2.00;;
42668;SDS011;29384;42.028;21.388;2023-04-15T06:12:16;7.60;;;2.35;;
42668;SDS011;29384;42.028;21.388;2023-04-15T06:17:44;3.80;;;2.28;;
42668;SDS011;29384;42.028;21.388;2023-04-15T06:20:10;9.05;;;2.15;;
42668;SDS011;29384;42.028;21.388;2023-04-15T06:22:35;3.90;;;2.17;;
42668;SDS011;29384;42.028;21.388;2023-04-15T06:25:01;4.80;;;2.58;;
42668;SDS011;29384;42.028;21.388;2023-04-15T06:27:26;5.22;;;3.88;;
42668;SDS011;29384;42.028;21.388;2023-04-15T06:32:54;4.53;;;3.15;;
42668;SDS011;29384;42.028;21.388;2023-04-15T06:35:20;3.60;;;3.30;;
42668;SDS011;29384;42.028;21.388;2023-04-15T06:37:45;3.95;;;2.75;;
42668;SDS011;29384;42.028;21.388;2023-04-15T06:40:10;11.15;;;2.42;;
42668;SDS011;29384;42.028;21.388;2023-04-15T06:42:36;7.80;;;3.10;;
42668;SDS011;29384;42.028;21.388;2023-04-15T06:48:18;4.55;;;2.70;;
42668;SDS011;29384;42.028;21.388;2023-04-15T06:50:43;5.88;;;3.05;;
42668;SDS011;29384;42.028;21.388;2023-04-15T06:53:08;3.38;;;3.00;;
42668;SDS011;29384;42.028;21.388;2023-04-15T06:55:33;4.50;;;2.40;;
42668;SDS011;29384;42.028;21.388;2023-04-15T06:57:59;2.50;;;2.08;;
42668;SDS011;29384;42.028;21.388;2023-04-15T07:00:24;7.30;;;3.20;;
42668;SDS011;29384;42.028;21.388;2023-04-15T07:02:50;3.85;;;2.25;;
42668;SDS011;29384;42.028;21.388;2023-04-15T07:05:15;10.65;;;2.97;;
42668;SDS011;29384;42.028;21.388;2023-04-15T07:07:41;4.63;;;2.58;;
42668;SDS011;29384;42.028;21.388;2023-04-15T07:10:06;3.63;;;2.28;;
42668;SDS011;29384;42.028;21.388;2023-04-15T07:12:32;3.83;;;2.47;;
42668;SDS011;29384;42.028;21.388;2023-04-15T07:18:00;5.45;;;2.00;;
42668;SDS011;29384;42.028;21.388;2023-04-15T07:20:25;2.80;;;1.33;;
42668;SDS011;29384;42.028;21.388;2023-04-15T07:22:51;2.20;;;1.88;;
42668;SDS011;29384;42.028;21.388;2023-04-15T07:25:17;5.38;;;2.00;;
42668;SDS011;29384;42.028;21.388;2023-04-15T07:27:43;2.03;;;1.42;;
42668;SDS011;29384;42.028;21.388;2023-04-15T07:33:11;3.60;;;2.63;;
42668;SDS011;29384;42.028;21.388;2023-04-15T07:35:36;2.58;;;2.38;;
42668;SDS011;29384;42.028;21.388;2023-04-15T07:38:02;6.15;;;3.22;;
42668;SDS011;29384;42.028;21.388;2023-04-15T07:40:27;6.47;;;3.92;;
42668;SDS011;29384;42.028;21.388;2023-04-15T07:42:53;8.00;;;3.25;;
42668;SDS011;29384;42.028;21.388;2023-04-15T07:48:21;4.65;;;2.25;;
42668;SDS011;29384;42.028;21.388;2023-04-15T07:50:46;2.13;;;1.77;;
42668;SDS011;29384;42.028;21.388;2023-04-15T07:53:11;2.80;;;1.90;;
42668;SDS011;29384;42.028;21.388;2023-04-15T07:55:37;4.18;;;1.55;;
42668;SDS011;29384;42.028;21.388;2023-04-15T07:58:02;3.55;;;1.48;;
42668;SDS011;29384;42.028;21.388;2023-04-15T08:03:30;4.13;;;2.10;;
42668;SDS011;29384;42.028;21.388;2023-04-15T08:05:57;2.40;;;1.52;;
42668;SDS011;29384;42.028;21.388;2023-04-15T08:08:22;2.42;;;1.40;;
42668;SDS011;29384;42.028;21.388;2023-04-15T08:10:48;1.80;;;1.70;;
42668;SDS011;29384;42.028;21.388;2023-04-15T08:13:13;1.60;;;1.50;;
42668;SDS011;29384;42.028;21.388;2023-04-15T08:18:41;1.85;;;0.95;;
42668;SDS011;29384;42.028;21.388;2023-04-15T08:21:07;4.32;;;1.15;;
42668;SDS011;29384;42.028;21.388;2023-04-15T08:23:32;2.60;;;1.17;;
42668;SDS011;29384;42.028;21.388;2023-04-15T08:25:58;4.97;;;1.38;;
42668;SDS011;29384;42.028;21.388;2023-04-15T08:28:24;3.95;;;1.17;;
42668;SDS011;29384;42.028;21.388;2023-04-15T08:30:49;2.78;;;0.93;;
42668;SDS011;29384;42.028;21.388;2023-04-15T08:33:14;1.67;;;0.90;;
42668;SDS011;29384;42.028;21.388;2023-04-15T08:35:40;1.65;;;0.80;;
42668;SDS011;29384;42.028;21.388;2023-04-15T08:38:05;1.88;;;1.35;;
42668;SDS011;29384;42.028;21.388;2023-04-15T08:40:34;0.82;;;0.82;;
42668;SDS011;29384;42.028;21.388;2023-04-15T08:43:04;4.35;;;1.00;;
42668;SDS011;29384;42.028;21.388;2023-04-15T08:48:34;1.25;;;0.52;;
42668;SDS011;29384;42.028;21.388;2023-04-15T08:51:01;0.55;;;0.55;;
42668;SDS011;29384;42.028;21.388;2023-04-15T08:53:28;1.08;;;0.85;;
42668;SDS011;29384;42.028;21.388;2023-04-15T08:55:53;1.48;;;0.95;;
42668;SDS011;29384;42.028;21.388;2023-04-15T08:58:20;1.02;;;1.00;;
42668;SDS011;29384;42.028;21.388;2023-04-15T09:03:48;3.75;;;0.88;;
42668;SDS011;29384;42.028;21.388;2023-04-15T09:06:17;1.30;;;1.10;;
42668;SDS011;29384;42.028;21.388;2023-04-15T09:08:42;3.88;;;1.20;;
42668;SDS011;29384;42.028;21.388;2023-04-15T09:11:08;1.30;;;1.20;;
42668;SDS011;29384;42.028;21.388;2023-04-15T09:13:34;3.80;;;1.73;;
42668;SDS011;29384;42.028;21.388;2023-04-15T09:19:13;4.10;;;1.63;;
42668;SDS011;29384;42.028;21.388;2023-04-15T09:21:46;1.10;;;0.75;;
42668;SDS011;29384;42.028;21.388;2023-04-15T09:24:11;3.20;;;1.85;;
42668;SDS011;29384;42.028;21.388;2023-04-15T09:26:36;2.03;;;1.00;;
42668;SDS011;29384;42.028;21.388;2023-04-15T09:31:30;1.85;;;0.47;;
42668;SDS011;29384;42.028;21.388;2023-04-15T09:33:56;15.10;;;1.42;;
42668;SDS011;29384;42.028;21.388;2023-04-15T09:36:21;1.75;;;0.73;;
42668;SDS011;29384;42.028;21.388;2023-04-15T09:38:57;2.75;;;0.60;;
42668;SDS011;29384;42.028;21.388;2023-04-15T09:41:22;5.40;;;0.60;;
42668;SDS011;29384;42.028;21.388;2023-04-15T09:43:48;1.05;;;0.68;;
42668;SDS011;29384;42.028;21.388;2023-04-15T09:49:16;1.48;;;0.73;;
42668;SDS011;29384;42.028;21.388;2023-04-15T09:51:42;1.58;;;0.80;;
42668;SDS011;29384;42.028;21.388;2023-04-15T09:54:08;5.72;;;0.82;;
42668;SDS011;29384;42.028;21.388;2023-04-15T09:56:34;0.52;;;0.52;;
42668;SDS011;29384;42.028;21.388;2023-04-15T09:59:01;12.88;;;0.65;;
42668;SDS011;29384;42.028;21.388;2023-04-15T10:01:26;0.55;;;0.55;;
42668;SDS011;29384;42.028;21.388;2023-04-15T10:03:51;1.15;;;0.60;;
42668;SDS011;29384;42.028;21.388;2023-04-15T10:06:17;1.50;;;1.27;;
42668;SDS011;29384;42.028;21.388;2023-04-15T10:08:43;1.65;;;0.85;;
42668;SDS011;29384;42.028;21.388;2023-04-15T10:11:10;0.38;;;0.30;;
42668;SDS011;29384;42.028;21.388;2023-04-15T10:13:36;0.98;;;0.50;;
42668;SDS011;29384;42.028;21.388;2023-04-15T10:19:19;2.30;;;0.50;;
42668;SDS011;29384;42.028;21.388;2023-04-15T10:21:49;0.40;;;0.28;;
42668;SDS011;29384;42.028;21.388;2023-04-15T10:24:15;2.00;;;0.73;;
42668;SDS011;29384;42.028;21.388;2023-04-15T10:26:41;1.00;;;0.65;;
42668;SDS011;29384;42.028;21.388;2023-04-15T10:29:07;0.32;;;0.32;;
42668;SDS011;29384;42.028;21.388;2023-04-15T10:31:33;0.65;;;0.43;;
42668;SDS011;29384;42.028;21.388;2023-04-15T10:33:59;1.33;;;0.57;;
42668;SDS011;29384;42.028;21.388;2023-04-15T10:36:29;1.92;;;0.80;;
42668;SDS011;29384;42.028;21.388;2023-04-15T10:38:54;7.57;;;0.75;;
42668;SDS011;29384;42.028;21.388;2023-04-15T10:41:20;2.40;;;1.25;;
42668;SDS011;29384;42.028;21.388;2023-04-15T10:49:23;4.38;;;0.70;;
42668;SDS011;29384;42.028;21.388;2023-04-15T10:52:06;5.22;;;1.08;;
42668;SDS011;29384;42.028;21.388;2023-04-15T10:54:32;1.52;;;0.77;;
42668;SDS011;29384;42.028;21.388;2023-04-15T10:59:30;5.35;;;0.95;;
42668;SDS011;29384;42.028;21.388;2023-04-15T11:01:56;2.33;;;0.50;;
42668;SDS011;29384;42.028;21.388;2023-04-15T11:07:07;3.85;;;1.08;;
42668;SDS011;29384;42.028;21.388;2023-04-15T11:09:33;4.95;;;0.75;;
42668;SDS011;29384;42.028;21.388;2023-04-15T11:12:08;1.50;;;0.50;;
42668;SDS011;29384;42.028;21.388;2023-04-15T11:14:36;1.63;;;0.60;;
42668;SDS011;29384;42.028;21.388;2023-04-15T11:17:03;1.05;;;0.40;;
42668;SDS011;29384;42.028;21.388;2023-04-15T11:19:34;1.10;;;0.50;;
42668;SDS011;29384;42.028;21.388;2023-04-15T11:22:08;0.77;;;0.13;;
42668;SDS011;29384;42.028;21.388;2023-04-15T11:24:35;6.28;;;0.73;;
42668;SDS011;29384;42.028;21.388;2023-04-15T11:27:00;0.22;;;0.22;;
42668;SDS011;29384;42.028;21.388;2023-04-15T11:35:31;2.05;;;0.30;;
42668;SDS011;29384;42.028;21.388;2023-04-15T11:37:57;1.45;;;0.43;;
42668;SDS011;29384;42.028;21.388;2023-04-15T11:40:26;0.30;;;0.10;;
42668;SDS011;29384;42.028;21.388;2023-04-15T11:45:36;0.45;;;0.45;;
42668;SDS011;29384;42.028;21.388;2023-04-15T11:48:06;0.30;;;0.30;;
42668;SDS011;29384;42.028;21.388;2023-04-15T11:50:31;0.57;;;0.45;;
42668;SDS011;29384;42.028;21.388;2023-04-15T11:52:58;1.40;;;0.43;;
42668;SDS011;29384;42.028;21.388;2023-04-15T11:55:23;0.17;;;0.17;;
42668;SDS011;29384;42.028;21.388;2023-04-15T11:57:49;0.90;;;0.90;;
42668;SDS011;29384;42.028;21.388;2023-04-15T12:00:15;0.43;;;0.43;;
42668;SDS011;29384;42.028;21.388;2023-04-15T12:02:41;0.90;;;0.22;;
42668;SDS011;29384;42.028;21.388;2023-04-15T12:05:07;0.22;;;0.22;;
42668;SDS011;29384;42.028;21.388;2023-04-15T12:07:33;0.95;;;0.25;;
42668;SDS011;29384;42.028;21.388;2023-04-15T12:09:58;0.57;;;0.17;;
42668;SDS011;29384;42.028;21.388;2023-04-15T12:12:27;2.72;;;0.75;;
42668;SDS011;29384;42.028;21.388;2023-04-15T12:14:52;0.30;;;0.20;;
42668;SDS011;29384;42.028;21.388;2023-04-15T12:17:18;0.13;;;0.13;;
42668;SDS011;29384;42.028;21.388;2023-04-15T12:19:43;0.40;;;0.20;;
42668;SDS011;29384;42.028;21.388;2023-04-15T12:22:13;0.60;;;0.60;;
42668;SDS011;29384;42.028;21.388;2023-04-15T12:24:40;0.25;;;0.25;;
42668;SDS011;29384;42.028;21.388;2023-04-15T12:27:08;0.22;;;0.13;;
42668;SDS011;29384;42.028;21.388;2023-04-15T12:29:34;4.28;;;0.10;;
42668;SDS011;29384;42.028;21.388;2023-04-15T12:35:03;1.17;;;0.40;;
42668;SDS011;29384;42.028;21.388;2023-04-15T12:37:29;0.70;;;0.10;;
42668;SDS011;29384;42.028;21.388;2023-04-15T12:39:54;1.17;;;0.30;;
42668;SDS011;29384;42.028;21.388;2023-04-15T12:42:19;2.17;;;0.10;;
42668;SDS011;29384;42.028;21.388;2023-04-15T12:44:46;0.40;;;0.20;;
42668;SDS011;29384;42.028;21.388;2023-04-15T12:50:14;0.20;;;0.20;;
42668;SDS011;29384;42.028;21.388;2023-04-15T12:52:41;0.47;;;0.47;;
42668;SDS011;29384;42.028;21.388;2023-04-15T12:55:06;0.35;;;0.25;;
42668;SDS011;29384;42.028;21.388;2023-04-15T12:57:32;0.20;;;0.20;;
42668;SDS011;29384;42.028;21.388;2023-04-15T12:59:57;4.47;;;0.55;;
42668;SDS011;29384;42.028;21.388;2023-04-15T13:05:25;0.85;;;0.10;;
42668;SDS011;29384;42.028;21.388;2023-04-15T13:07:50;0.20;;;0.20;;
42668;SDS011;29384;42.028;21.388;2023-04-15T13:10:16;0.73;;;0.30;;
42668;SDS011;29384;42.028;21.388;2023-04-15T13:12:41;0.20;;;0.20;;
42668;SDS011;29384;42.028;21.388;2023-04-15T13:15:06;1.20;;;0.13;;
42668;SDS011;29384;42.028;21.388;2023-04-15T13:20:37;2.30;;;0.60;;
42668;SDS011;29384;42.028;21.388;2023-04-15T13:23:02;3.70;;;0.50;;
42668;SDS011;29384;42.028;21.388;2023-04-15T13:25:28;5.78;;;0.88;;
42668;SDS011;29384;42.028;21.388;2023-04-15T13:27:53;0.55;;;0.30;;
42668;SDS011;29384;42.028;21.388;2023-04-15T13:30:19;0.70;;;0.20;;
42668;SDS011;29384;42.028;21.388;2023-04-15T13:32:44;0.20;;;0.10;;
42668;SDS011;29384;42.028;21.388;2023-04-15T13:35:10;0.30;;;0.20;;
42668;SDS011;29384;42.028;21.388;2023-04-15T13:37:35;3.05;;;0.25;;
42668;SDS011;29384;42.028;21.388;2023-04-15T13:40:00;4.38;;;0.35;;
42668;SDS011;29384;42.028;21.388;2023-04-15T13:42:26;1.00;;;0.20;;
42668;SDS011;29384;42.028;21.388;2023-04-15T13:44:51;2.35;;;0.55;;
42668;SDS011;29384;42.028;21.388;2023-04-15T13:50:19;0.20;;;0.20;;
42668;SDS011;29384;42.028;21.388;2023-04-15T13:52:44;0.10;;;0.10;;
42668;SDS011;29384;42.028;21.388;2023-04-15T13:55:10;0.95;;;0.30;;
42668;SDS011;29384;42.028;21.388;2023-04-15T13:57:35;1.92;;;0.75;;
42668;SDS011;29384;42.028;21.388;2023-04-15T14:00:01;0.32;;;0.30;;
42668;SDS011;29384;42.028;21.388;2023-04-15T14:05:29;0.43;;;0.43;;
42668;SDS011;29384;42.028;21.388;2023-04-15T14:07:54;0.88;;;0.15;;
42668;SDS011;29384;42.028;21.388;2023-04-15T14:10:19;1.38;;;0.30;;
42668;SDS011;29384;42.028;21.388;2023-04-15T14:12:45;3.65;;;0.43;;
42668;SDS011;29384;42.028;21.388;2023-04-15T14:15:10;0.20;;;0.10;;
42668;SDS011;29384;42.028;21.388;2023-04-15T14:20:38;1.00;;;0.60;;
42668;SDS011;29384;42.028;21.388;2023-04-15T14:23:03;0.30;;;0.28;;
42668;SDS011;29384;42.028;21.388;2023-04-15T14:25:28;0.43;;;0.30;;
42668;SDS011;29384;42.028;21.388;2023-04-15T14:27:54;2.08;;;0.40;;
42668;SDS011;29384;42.028;21.388;2023-04-15T14:30:19;0.20;;;0.10;;
42668;SDS011;29384;42.028;21.388;2023-04-15T14:35:48;0.20;;;0.20;;
42668;SDS011;29384;42.028;21.388;2023-04-15T14:38:13;4.47;;;0.13;;
42668;SDS011;29384;42.028;21.388;2023-04-15T14:40:40;7.47;;;0.50;;
42668;SDS011;29384;42.028;21.388;2023-04-15T14:43:05;0.40;;;0.25;;
42668;SDS011;29384;42.028;21.388;2023-04-15T14:45:30;4.32;;;0.10;;
42668;SDS011;29384;42.028;21.388;2023-04-15T14:50:59;1.77;;;0.60;;
42668;SDS011;29384;42.028;21.388;2023-04-15T14:53:24;1.00;;;0.45;;
42668;SDS011;29384;42.028;21.388;2023-04-15T14:55:49;2.33;;;0.77;;
42668;SDS011;29384;42.028;21.388;2023-04-15T14:58:14;1.83;;;0.47;;
42668;SDS011;29384;42.028;21.388;2023-04-15T15:00:40;3.97;;;0.40;;
42668;SDS011;29384;42.028;21.388;2023-04-15T15:06:10;0.77;;;0.55;;
42668;SDS011;29384;42.028;21.388;2023-04-15T15:08:36;0.43;;;0.15;;
42668;SDS011;29384;42.028;21.388;2023-04-15T15:11:01;0.13;;;0.13;;
42668;SDS011;29384;42.028;21.388;2023-04-15T15:13:26;0.40;;;0.40;;
42668;SDS011;29384;42.028;21.388;2023-04-15T15:15:52;0.30;;;0.30;;
42668;SDS011;29384;42.028;21.388;2023-04-15T15:21:20;0.47;;;0.35;;
42668;SDS011;29384;42.028;21.388;2023-04-15T15:23:45;1.67;;;0.50;;
42668;SDS011;29384;42.028;21.388;2023-04-15T15:26:12;0.50;;;0.43;;
42668;SDS011;29384;42.028;21.388;2023-04-15T15:28:37;1.20;;;0.35;;
42668;SDS011;29384;42.028;21.388;2023-04-15T15:31:02;0.30;;;0.30;;
42668;SDS011;29384;42.028;21.388;2023-04-15T15:36:50;1.98;;;0.75;;
42668;SDS011;29384;42.028;21.388;2023-04-15T15:39:15;1.15;;;0.98;;
42668;SDS011;29384;42.028;21.388;2023-04-15T15:41:40;0.20;;;0.20;;
42668;SDS011;29384;42.028;21.388;2023-04-15T15:44:06;1.95;;;0.57;;
42668;SDS011;29384;42.028;21.388;2023-04-15T15:46:31;0.63;;;0.30;;
42668;SDS011;29384;42.028;21.388;2023-04-15T15:48:56;1.48;;;0.43;;
42668;SDS011;29384;42.028;21.388;2023-04-15T15:51:22;1.33;;;0.50;;
42668;SDS011;29384;42.028;21.388;2023-04-15T15:53:47;2.30;;;0.68;;
42668;SDS011;29384;42.028;21.388;2023-04-15T15:56:12;0.43;;;0.20;;
42668;SDS011;29384;42.028;21.388;2023-04-15T15:58:38;0.10;;;0.10;;
42668;SDS011;29384;42.028;21.388;2023-04-15T16:01:03;2.60;;;0.65;;
42668;SDS011;29384;42.028;21.388;2023-04-15T16:06:31;1.48;;;0.35;;
42668;SDS011;29384;42.028;21.388;2023-04-15T16:08:56;0.28;;;0.28;;
42668;SDS011;29384;42.028;21.388;2023-04-15T16:11:22;3.60;;;0.50;;
42668;SDS011;29384;42.028;21.388;2023-04-15T16:13:47;0.98;;;0.20;;
42668;SDS011;29384;42.028;21.388;2023-04-15T16:16:13;0.85;;;0.47;;
42668;SDS011;29384;42.028;21.388;2023-04-15T16:21:41;2.38;;;0.50;;
42668;SDS011;29384;42.028;21.388;2023-04-15T16:24:06;2.50;;;0.75;;
42668;SDS011;29384;42.028;21.388;2023-04-15T16:26:32;1.73;;;0.73;;
42668;SDS011;29384;42.028;21.388;2023-04-15T16:28:57;0.88;;;0.40;;
42668;SDS011;29384;42.028;21.388;2023-04-15T16:31:22;6.15;;;0.32;;
42668;SDS011;29384;42.028;21.388;2023-04-15T16:36:50;1.60;;;0.55;;
42668;SDS011;29384;42.028;21.388;2023-04-15T16:39:16;1.48;;;0.30;;
42668;SDS011;29384;42.028;21.388;2023-04-15T16:41:41;5.78;;;1.00;;
42668;SDS011;29384;42.028;21.388;2023-04-15T16:44:06;1.98;;;1.00;;
42668;SDS011;29384;42.028;21.388;2023-04-15T16:46:33;0.63;;;0.63;;
42668;SDS011;29384;42.028;21.388;2023-04-15T16:52:00;0.38;;;0.38;;
42668;SDS011;29384;42.028;21.388;2023-04-15T16:54:26;0.77;;;0.47;;
42668;SDS011;29384;42.028;21.388;2023-04-15T16:56:53;3.10;;;1.35;;
42668;SDS011;29384;42.028;21.388;2023-04-15T16:59:18;12.00;;;0.75;;
42668;SDS011;29384;42.028;21.388;2023-04-15T17:01:43;1.33;;;0.55;;
42668;SDS011;29384;42.028;21.388;2023-04-15T17:04:09;1.55;;;1.15;;
42668;SDS011;29384;42.028;21.388;2023-04-15T17:06:34;1.15;;;0.65;;
42668;SDS011;29384;42.028;21.388;2023-04-15T17:08:59;0.70;;;0.70;;
42668;SDS011;29384;42.028;21.388;2023-04-15T17:11:26;0.43;;;0.43;;
42668;SDS011;29384;42.028;21.388;2023-04-15T17:13:51;5.10;;;1.05;;